Terminal Aerodrome Forecast
Issued by NWS

Home | Current Version | Previous Version | Text Only | Print | Product List | Glossary On
Versions: 1 2 3 4 5 6 7 8 9 10 11 12 13
155
FTUS42 TJSJ 061120
TAFKPK
TAF
TKPK 061120Z 0612/0712 06011KT P6SM FEW022
     FM061300 07012KT P6SM VCSH SCT020
     FM062200 08007KT P6SM FEW022=

USA.gov is the U.S. government's official web portal to all federal, state and local government web resources and services.